Time;durP1;ratioP1;P1;durP2;ratioP2;P2;SDS_P1;SDS_P2;PMS_P1;PMS_P2;Temp;Humidity;BMP_temperature;BMP_pressure;BME280_temperature;BME280_humidity;BME280_pressure;Samples;Min_cycle;Max_cycle;Signal;HPM_P1;HPM_P2
2024/04/05 00:02:14;;;;;;;2.10;0.30;;;;;;;11.77;98.67;100544.72;5015670;28;20866;-68
2024/04/05 00:04:40;;;;;;;2.10;0.30;;;;;;;11.80;99.06;100548.72;5015315;28;20480;-71
2024/04/05 00:07:06;;;;;;;2.20;0.47;;;;;;;11.84;99.01;100542.41;5015690;28;20530;-71
2024/04/05 00:09:32;;;;;;;2.20;0.60;;;;;;;11.88;98.30;100547.22;5015974;28;20292;-71
2024/04/05 00:12:00;;;;;;;2.10;0.40;;;;;;;11.89;98.40;100543.38;5015601;28;20527;-71
2024/04/05 00:14:26;;;;;;;2.10;0.30;;;;;;;11.89;98.12;100546.91;5015850;28;20233;-71
2024/04/05 00:16:52;;;;;;;2.10;0.33;;;;;;;11.91;98.34;100544.69;5015846;28;20487;-71
2024/04/05 00:19:18;;;;;;;2.10;0.30;;;;;;;11.91;98.10;100552.00;5015474;28;20300;-70
2024/04/05 00:21:44;;;;;;;2.20;0.40;;;;;;;11.90;98.06;100540.34;5015264;28;20547;-70
2024/04/05 00:24:10;;;;;;;2.13;0.37;;;;;;;11.91;98.15;100539.25;5015281;28;20312;-70
2024/04/05 00:26:37;;;;;;;2.10;0.30;;;;;;;11.89;97.72;100535.25;5015606;28;20482;-70
2024/04/05 00:29:04;;;;;;;2.30;0.50;;;;;;;11.84;98.33;100528.03;5015914;28;20201;-70
2024/04/05 00:31:30;;;;;;;2.10;0.40;;;;;;;11.77;99.84;100547.44;5015615;28;20444;-70
2024/04/05 00:33:56;;;;;;;2.10;0.30;;;;;;;11.78;99.42;100538.19;5015605;28;20464;-70
2024/04/05 00:36:22;;;;;;;2.10;0.30;;;;;;;11.76;99.16;100542.31;5015746;28;20507;-70
2024/04/05 00:38:49;;;;;;;2.10;0.40;;;;;;;11.84;98.83;100538.91;5015257;28;20297;-70
2024/04/05 00:41:15;;;;;;;2.10;0.30;;;;;;;11.86;98.83;100533.94;5015036;28;20447;-70
2024/04/05 00:43:42;;;;;;;2.10;0.30;;;;;;;11.85;99.53;100545.91;5014881;28;20460;-70
2024/04/05 00:46:10;;;;;;;2.23;0.50;;;;;;;11.88;99.24;100563.50;5014607;28;20475;-70
2024/04/05 00:48:36;;;;;;;2.10;0.30;;;;;;;11.98;97.70;100560.53;5015244;28;20437;-70
2024/04/05 00:51:05;;;;;;;2.10;0.30;;;;;;;11.93;97.46;100561.47;5014811;28;20444;-69
2024/04/05 00:53:32;;;;;;;2.10;0.30;;;;;;;11.90;97.92;100561.28;5014346;28;21056;-70
2024/04/05 00:56:00;;;;;;;2.20;0.63;;;;;;;11.86;97.91;100572.78;5015074;28;20446;-70
2024/04/05 00:58:26;;;;;;;2.10;0.30;;;;;;;11.85;97.76;100567.63;5014923;28;20444;-70
2024/04/05 01:00:53;;;;;;;2.20;0.40;;;;;;;11.77;99.26;100569.13;5014582;28;20639;-70
2024/04/05 01:03:20;;;;;;;2.10;0.50;;;;;;;11.76;99.25;100569.47;5014804;28;20507;-70
2024/04/05 01:05:47;;;;;;;2.30;0.40;;;;;;;11.71;99.95;100569.59;5014604;28;20492;-70
2024/04/05 01:08:14;;;;;;;2.10;0.40;;;;;;;11.72;99.00;100571.19;5014571;28;20943;-70
2024/04/05 01:10:41;;;;;;;2.30;0.60;;;;;;;11.68;99.32;100571.00;5014141;28;20897;-70
2024/04/05 01:13:09;;;;;;;2.83;0.40;;;;;;;11.68;99.11;100581.06;5014367;28;20460;-70
2024/04/05 01:15:36;;;;;;;2.20;0.37;;;;;;;11.67;99.15;100572.09;5013973;28;20452;-70
2024/04/05 01:18:04;;;;;;;2.10;0.30;;;;;;;11.67;99.33;100574.81;5014726;28;20530;-70
2024/04/05 01:20:33;;;;;;;2.13;0.37;;;;;;;11.68;99.16;100562.84;5014034;28;20446;-70
2024/04/05 01:23:00;;;;;;;2.10;0.30;;;;;;;11.67;100.00;100565.88;5013932;28;20460;-70
2024/04/05 01:25:29;;;;;;;2.10;0.30;;;;;;;11.66;100.00;100570.50;5014926;28;20480;-70
2024/04/05 01:27:55;;;;;;;2.10;0.33;;;;;;;11.67;100.00;100565.88;5014294;28;20807;-70
2024/04/05 01:30:22;;;;;;;2.10;0.40;;;;;;;11.66;100.00;100572.44;5014190;28;20444;-70
2024/04/05 01:32:53;;;;;;;2.20;0.40;;;;;;;11.68;100.00;100570.19;5014025;28;20460;-70
2024/04/05 01:35:19;;;;;;;2.10;0.30;;;;;;;11.65;100.00;100568.91;5013890;28;20435;-70
2024/04/05 01:37:46;;;;;;;2.17;0.40;;;;;;;11.64;100.00;100572.72;5014106;28;20523;-70
2024/04/05 01:40:12;;;;;;;2.20;0.50;;;;;;;11.65;100.00;100570.84;5013754;28;21011;-70
2024/04/05 01:42:39;;;;;;;2.10;0.30;;;;;;;11.67;100.00;100576.75;5013627;28;20466;-70
2024/04/05 01:45:06;;;;;;;2.83;0.60;;;;;;;11.66;100.00;100577.84;5013916;28;20454;-70
2024/04/05 01:47:32;;;;;;;2.10;0.30;;;;;;;11.68;100.00;100581.06;5044193;22;20589;-65
2024/04/05 01:49:58;;;;;;;2.47;0.40;;;;;;;11.67;100.00;100580.25;5033492;28;20526;-65
2024/04/05 01:52:24;;;;;;;2.67;0.80;;;;;;;11.70;100.00;100571.50;5033181;28;20721;-65
2024/04/05 01:54:53;;;;;;;2.13;0.40;;;;;;;11.71;100.00;100575.81;5033698;28;20501;-65
2024/04/05 01:57:18;;;;;;;2.10;0.40;;;;;;;11.71;100.00;100580.44;5033515;28;20214;-65
2024/04/05 01:59:48;;;;;;;2.10;0.30;;;;;;;11.70;100.00;100581.56;5033498;28;20522;-65
2024/04/05 02:02:14;;;;;;;3.07;0.50;;;;;;;11.73;100.00;100579.03;5033427;28;20283;-65
2024/04/05 02:04:40;;;;;;;2.10;0.30;;;;;;;11.88;100.00;100587.94;5033412;28;21041;-66
2024/04/05 02:07:06;;;;;;;2.10;0.30;;;;;;;11.84;100.00;100593.97;5033441;28;20593;-65
2024/04/05 02:09:33;;;;;;;2.10;0.40;;;;;;;11.82;100.00;100588.06;5033082;28;20443;-64
2024/04/05 02:11:59;;;;;;;2.07;0.30;;;;;;;11.84;99.74;100585.84;5033385;28;20211;-64
2024/04/05 02:14:25;;;;;;;2.20;0.50;;;;;;;11.89;99.55;100593.03;5033500;28;20530;-64
2024/04/05 02:16:54;;;;;;;2.10;0.30;;;;;;;11.90;100.00;100596.56;5033034;28;20439;-64
2024/04/05 02:19:21;;;;;;;2.13;0.40;;;;;;;11.90;99.75;100591.13;5032973;28;20443;-65
2024/04/05 02:21:46;;;;;;;2.20;0.40;;;;;;;11.93;98.79;100598.66;5033088;28;20486;-65
2024/04/05 02:24:13;;;;;;;2.10;0.30;;;;;;;11.94;99.30;100597.53;5033668;28;20562;-65
2024/04/05 02:26:39;;;;;;;2.00;0.30;;;;;;;11.95;99.63;100588.28;5033881;28;20266;-65
2024/04/05 02:29:05;;;;;;;2.10;0.30;;;;;;;11.95;99.32;100593.72;5036888;28;20479;-65
2024/04/05 02:31:31;;;;;;;2.10;0.40;;;;;;;11.97;99.27;100599.66;5036908;28;20208;-65
2024/04/05 02:33:59;;;;;;;2.40;0.50;;;;;;;11.96;98.43;100598.84;5037453;28;20516;-65
2024/04/05 02:36:24;;;;;;;2.10;0.30;;;;;;;11.95;98.92;100599.13;5037455;28;20227;-65
2024/04/05 02:38:51;;;;;;;2.10;0.30;;;;;;;11.96;98.37;100603.47;5037054;28;20473;-65
2024/04/05 02:41:17;;;;;;;2.10;0.30;;;;;;;11.89;100.00;100603.09;5037281;28;20224;-65
2024/04/05 02:43:44;;;;;;;2.30;0.40;;;;;;;11.85;100.00;100614.56;5036891;28;21020;-65
2024/04/05 02:46:09;;;;;;;2.20;0.40;;;;;;;11.82;99.20;100604.34;5036424;28;20278;-65
2024/04/05 02:48:36;;;;;;;2.10;0.30;;;;;;;11.84;99.54;100609.47;5037270;28;20431;-65
2024/04/05 02:51:03;;;;;;;2.10;0.40;;;;;;;11.86;99.36;100618.06;5036679;28;20665;-65
2024/04/05 02:53:30;;;;;;;2.10;0.30;;;;;;;11.85;99.69;100619.19;5036727;28;20463;-66
2024/04/05 02:55:55;;;;;;;2.30;0.40;;;;;;;11.86;99.79;100616.19;5036438;28;20463;-65
2024/04/05 02:58:22;;;;;;;2.10;0.30;;;;;;;11.82;100.00;100619.78;5036663;28;20482;-65
2024/04/05 03:00:48;;;;;;;2.10;0.40;;;;;;;11.79;100.00;100615.78;5037001;28;20222;-65
2024/04/05 03:03:15;;;;;;;3.07;0.50;;;;;;;11.81;99.91;100618.97;5036510;28;20466;-64
2024/04/05 03:05:41;;;;;;;2.20;0.50;;;;;;;11.81;99.84;100616.25;5036818;28;20482;-64
2024/04/05 03:08:09;;;;;;;2.10;0.30;;;;;;;11.80;99.77;100620.09;5036153;28;20954;-64
2024/04/05 03:10:34;;;;;;;2.37;0.50;;;;;;;11.79;99.39;100618.50;5036449;28;20204;-64
2024/04/05 03:13:01;;;;;;;2.10;0.40;;;;;;;11.79;99.53;100625.84;5035990;28;20563;-64
2024/04/05 03:15:27;;;;;;;2.10;0.40;;;;;;;11.77;99.61;100628.84;5036378;28;20204;-64
2024/04/05 03:17:53;;;;;;;2.10;0.30;;;;;;;11.74;99.58;100624.06;5036364;28;20526;-64
2024/04/05 03:20:19;;;;;;;2.10;0.30;;;;;;;11.72;99.95;100628.97;5036516;28;20211;-64
2024/04/05 03:22:45;;;;;;;2.30;0.53;;;;;;;11.72;99.88;100637.09;5036291;28;20820;-64
2024/04/05 03:25:12;;;;;;;2.40;0.70;;;;;;;11.72;100.00;100647.16;5036141;28;20632;-64
2024/04/05 03:27:39;;;;;;;2.10;0.30;;;;;;;11.72;100.00;100644.44;5036487;28;20471;-64
2024/04/05 03:30:05;;;;;;;2.10;0.40;;;;;;;11.74;99.94;100648.47;5036110;28;20526;-65
2024/04/05 03:32:32;;;;;;;2.20;0.40;;;;;;;11.71;100.00;100645.56;5035901;28;20498;-65
2024/04/05 03:34:57;;;;;;;2.20;0.40;;;;;;;11.72;100.00;100647.16;5036144;28;20443;-64
2024/04/05 03:37:24;;;;;;;2.10;0.40;;;;;;;11.75;100.00;100646.56;5035569;28;20445;-66
2024/04/05 03:39:51;;;;;;;2.10;0.37;;;;;;;11.76;100.00;100648.16;5035905;28;20299;-65
2024/04/05 03:42:19;;;;;;;2.10;0.40;;;;;;;11.75;100.00;100652.78;5035876;28;20471;-65
2024/04/05 03:44:46;;;;;;;2.10;0.40;;;;;;;11.79;100.00;100644.84;5035557;28;20958;-65
2024/04/05 03:47:13;;;;;;;2.20;0.40;;;;;;;11.77;100.00;100650.56;5035785;28;20486;-65
2024/04/05 03:49:38;;;;;;;2.10;0.40;;;;;;;11.79;100.00;100648.34;5035396;28;21000;-65
2024/04/05 03:52:06;;;;;;;2.10;0.30;;;;;;;11.80;100.00;100655.38;5035627;28;20447;-65
2024/04/05 03:54:32;;;;;;;2.10;0.30;;;;;;;11.75;100.00;100652.78;5035677;28;20200;-65
2024/04/05 03:56:58;;;;;;;2.63;0.60;;;;;;;11.77;100.00;100644.31;5035577;28;20436;-65
2024/04/05 03:59:27;;;;;;;2.20;0.50;;;;;;;11.72;100.00;100647.97;5035693;28;20526;-65
2024/04/05 04:01:53;;;;;;;2.10;0.50;;;;;;;11.68;100.00;100644.25;5035469;28;20442;-67
2024/04/05 04:04:19;;;;;;;2.10;0.30;;;;;;;11.67;100.00;100650.78;5035375;28;20470;-68
2024/04/05 04:06:45;;;;;;;2.20;0.40;;;;;;;11.65;100.00;100653.03;5035409;28;21042;-65
2024/04/05 04:09:12;;;;;;;2.10;0.30;;;;;;;11.62;100.00;100653.63;5035243;28;20450;-66
2024/04/05 04:11:37;;;;;;;2.10;0.37;;;;;;;11.59;100.00;100649.59;5035286;28;20212;-66
2024/04/05 04:14:04;;;;;;;2.07;0.30;;;;;;;11.56;100.00;100660.28;5035163;28;20460;-66
2024/04/05 04:16:31;;;;;;;2.10;0.40;;;;;;;11.56;100.00;100663.00;5035222;28;20196;-66
2024/04/05 04:18:58;;;;;;;2.10;0.30;;;;;;;11.53;100.00;100666.31;5034887;28;20481;-66
2024/04/05 04:21:25;;;;;;;2.17;0.40;;;;;;;11.48;100.00;100667.22;5035099;28;20435;-66
2024/04/05 04:23:52;;;;;;;2.10;0.30;;;;;;;11.49;100.00;100660.69;5035322;28;20478;-66
2024/04/05 04:26:18;;;;;;;2.10;0.30;;;;;;;11.48;100.00;100674.56;5034943;28;20904;-66
2024/04/05 04:28:45;;;;;;;2.10;0.40;;;;;;;11.46;100.00;100665.91;5035029;28;20463;-66
2024/04/05 04:31:16;;;;;;;2.77;0.60;;;;;;;11.47;100.00;100672.97;5034713;28;20291;-66
2024/04/05 04:33:44;;;;;;;2.20;0.40;;;;;;;11.46;100.00;100671.34;5034910;28;21198;-67
2024/04/05 04:36:10;;;;;;;2.20;0.50;;;;;;;11.46;100.00;100677.56;5035151;28;20537;-67
2024/04/05 04:38:36;;;;;;;2.00;0.30;;;;;;;11.46;100.00;100680.28;5034786;28;20960;-67
2024/04/05 04:41:02;;;;;;;2.10;0.33;;;;;;;11.44;100.00;100682.50;5034494;28;20263;-67
2024/04/05 04:43:29;;;;;;;2.10;0.30;;;;;;;11.41;100.00;100683.09;5034335;28;20467;-67
2024/04/05 04:45:55;;;;;;;2.10;0.40;;;;;;;11.40;100.00;100684.22;5034370;28;20259;-66
2024/04/05 04:48:21;;;;;;;2.10;0.30;;;;;;;11.38;100.00;100686.44;5034804;28;20494;-66
2024/04/05 04:50:48;;;;;;;2.20;0.40;;;;;;;11.37;100.00;100695.66;5033860;28;20236;-67
2024/04/05 04:53:16;;;;;;;2.10;0.40;;;;;;;11.35;100.00;100700.59;5034527;28;20467;-66
2024/04/05 04:55:44;;;;;;;2.10;0.40;;;;;;;11.36;100.00;100694.88;5034454;28;20475;-66
2024/04/05 04:58:11;;;;;;;2.10;0.40;;;;;;;11.35;100.00;100697.88;5034778;28;20454;-67
2024/04/05 05:00:36;;;;;;;2.10;0.30;;;;;;;11.33;100.00;100697.38;5034456;28;20451;-67
2024/04/05 05:03:03;;;;;;;2.13;0.50;;;;;;;11.34;100.00;100699.00;5034723;28;20467;-67
2024/04/05 05:05:29;;;;;;;2.10;0.40;;;;;;;11.34;100.00;100707.13;5034249;28;20232;-66
2024/04/05 05:07:57;;;;;;;2.10;0.40;;;;;;;11.34;100.00;100713.38;5034505;28;20914;-66
2024/04/05 05:10:22;;;;;;;5.07;0.70;;;;;;;11.32;100.00;100715.56;5034694;28;20255;-66
2024/04/05 05:12:49;;;;;;;2.10;0.37;;;;;;;11.35;100.00;100712.25;5034176;28;20990;-66
2024/04/05 05:15:15;;;;;;;2.10;0.30;;;;;;;11.36;100.00;100718.47;5034340;28;20208;-66
2024/04/05 05:17:41;;;;;;;2.10;0.40;;;;;;;11.40;100.00;100719.47;5034151;28;20530;-66
2024/04/05 05:20:07;;;;;;;2.10;0.40;;;;;;;11.45;100.00;100710.44;5034127;28;20211;-66
2024/04/05 05:22:34;;;;;;;2.10;0.40;;;;;;;11.47;100.00;100717.16;5033920;28;20466;-66
2024/04/05 05:25:01;;;;;;;2.10;0.40;;;;;;;11.51;100.00;100720.06;5034328;28;20488;-66
2024/04/05 05:27:28;;;;;;;2.30;0.50;;;;;;;11.56;100.00;100725.41;5033750;28;20470;-66
2024/04/05 05:29:53;;;;;;;2.10;0.30;;;;;;;11.57;100.00;100733.22;5033900;28;20435;-66
2024/04/05 05:32:20;;;;;;;2.10;0.40;;;;;;;11.63;100.00;100733.91;5033468;28;20561;-66
2024/04/05 05:34:46;;;;;;;2.10;0.30;;;;;;;11.67;100.00;100739.53;5033902;28;20665;-66
2024/04/05 05:37:12;;;;;;;2.10;0.40;;;;;;;11.71;100.00;100743.25;5033471;28;20497;-66
2024/04/05 05:39:39;;;;;;;2.17;0.40;;;;;;;11.76;100.00;100746.66;5033799;28;20546;-66
2024/04/05 05:42:07;;;;;;;2.10;0.30;;;;;;;11.79;100.00;100748.75;5033628;28;20446;-66
2024/04/05 05:44:33;;;;;;;2.10;0.40;;;;;;;11.86;100.00;100751.06;5033720;28;20531;-66
2024/04/05 05:47:00;;;;;;;2.10;0.30;;;;;;;11.92;100.00;100749.06;5033228;28;20569;-66
2024/04/05 05:49:25;;;;;;;2.10;0.33;;;;;;;11.97;100.00;100755.19;5033674;28;20228;-68
2024/04/05 05:51:52;;;;;;;2.20;0.43;;;;;;;12.00;99.38;100753.78;5033550;28;20926;-67
2024/04/05 05:54:19;;;;;;;2.67;0.60;;;;;;;12.05;99.50;100750.94;5033703;28;20270;-66
2024/04/05 05:56:46;;;;;;;2.10;0.30;;;;;;;12.09;100.00;100755.44;5033489;28;20439;-67
2024/04/05 05:59:13;;;;;;;2.03;0.30;;;;;;;12.16;98.60;100757.72;5033524;28;20449;-65
2024/04/05 06:01:39;;;;;;;2.10;0.40;;;;;;;12.22;98.58;100759.22;5033400;28;20471;-66
2024/04/05 06:04:05;;;;;;;2.10;0.30;;;;;;;12.29;98.73;100770.47;5033595;28;20847;-66
2024/04/05 06:06:31;;;;;;;2.10;0.40;;;;;;;12.33;98.31;100760.59;5033373;28;21033;-66
2024/04/05 06:08:57;;;;;;;2.10;0.30;;;;;;;12.40;98.29;100768.31;5033777;28;20243;-66
2024/04/05 06:11:24;;;;;;;2.10;0.30;;;;;;;12.45;98.13;100765.47;5033512;28;20474;-68
2024/04/05 06:13:49;;;;;;;2.10;0.30;;;;;;;12.47;96.90;100765.94;5033539;28;20255;-67
2024/04/05 06:16:18;;;;;;;2.10;0.40;;;;;;;12.52;95.53;100762.31;5033676;28;20467;-67
2024/04/05 06:18:45;;;;;;;2.30;0.53;;;;;;;12.54;96.49;100760.09;5033426;28;20209;-67
2024/04/05 06:21:12;;;;;;;2.40;0.60;;;;;;;12.61;95.62;100758.53;5033191;28;20451;-68
2024/04/05 06:23:38;;;;;;;2.10;0.40;;;;;;;12.70;94.64;100761.31;5033893;28;20479;-67
2024/04/05 06:26:05;;;;;;;2.10;0.40;;;;;;;12.77;94.76;100756.22;5033227;28;21006;-67
2024/04/05 06:28:30;;;;;;;3.33;0.93;;;;;;;12.91;94.67;100768.94;5033185;28;20208;-66
2024/04/05 06:30:57;;;;;;;2.10;0.30;;;;;;;12.97;93.92;100764.97;5033221;28;20447;-66
2024/04/05 06:33:24;;;;;;;2.10;0.30;;;;;;;13.08;93.38;100771.75;5033119;28;20416;-66
2024/04/05 06:35:59;;;;;;;2.13;0.40;;;;;;;13.15;92.43;100766.66;5033213;28;20818;-66
2024/04/05 06:38:25;;;;;;;2.13;0.33;;;;;;;13.19;91.70;100770.34;5033530;28;20419;-66
2024/04/05 06:40:56;;;;;;;2.20;0.50;;;;;;;13.21;89.60;100768.13;5032874;28;20796;-65
2024/04/05 06:43:22;;;;;;;2.10;0.40;;;;;;;13.21;90.54;100770.84;5033433;28;20224;-65
2024/04/05 06:45:53;;;;;;;2.10;0.30;;;;;;;13.21;90.83;100767.31;5032779;28;20817;-65
2024/04/05 06:48:19;;;;;;;2.47;0.50;;;;;;;13.26;90.60;100765.28;5033089;28;20203;-65
2024/04/05 06:50:48;;;;;;;2.10;0.30;;;;;;;13.34;90.41;100766.44;5033023;28;20867;-65
2024/04/05 06:53:14;;;;;;;2.20;0.40;;;;;;;13.42;90.05;100765.69;5033282;28;20339;-66
2024/04/05 06:55:46;;;;;;;2.10;0.30;;;;;;;13.51;89.60;100771.94;5033458;28;20939;-66
2024/04/05 06:58:12;;;;;;;2.20;0.40;;;;;;;13.59;89.83;100771.16;5033254;28;20280;-66
2024/04/05 07:00:38;;;;;;;5.40;0.60;;;;;;;13.63;89.00;100776.75;5032925;28;20542;-66
2024/04/05 07:03:04;;;;;;;2.10;0.30;;;;;;;13.68;87.01;100776.63;5033064;28;20256;-66
2024/04/05 07:05:31;;;;;;;2.17;0.40;;;;;;;13.66;88.22;100778.84;5033145;28;20928;-66
2024/04/05 07:07:58;;;;;;;2.60;0.60;;;;;;;13.77;87.95;100785.63;5033012;28;20853;-66
2024/04/05 07:10:25;;;;;;;2.10;0.30;;;;;;;13.84;85.89;100779.69;5032748;28;20947;-66
2024/04/05 07:12:51;;;;;;;2.13;0.40;;;;;;;13.86;86.59;100786.44;5033412;28;20455;-66
2024/04/05 07:15:18;;;;;;;2.13;0.33;;;;;;;13.93;87.30;100783.22;5036266;28;20434;-66
2024/04/05 07:17:48;;;;;;;2.20;0.47;;;;;;;13.96;86.24;100787.25;5036497;28;20283;-66
2024/04/05 07:20:15;;;;;;;2.57;1.17;;;;;;;14.04;86.75;100781.81;5036493;28;20431;-66
2024/04/05 07:22:41;;;;;;;2.20;0.50;;;;;;;14.15;86.43;100785.00;5036393;28;20498;-66
2024/04/05 07:25:09;;;;;;;2.20;0.50;;;;;;;14.29;85.22;100784.84;5036112;28;20475;-65
2024/04/05 07:27:35;;;;;;;2.10;0.40;;;;;;;14.35;85.38;100773.47;5036586;28;20485;-66
2024/04/05 07:30:02;;;;;;;2.10;0.40;;;;;;;14.43;83.52;100774.56;5036379;28;20447;-67
2024/04/05 07:32:28;;;;;;;2.40;0.57;;;;;;;14.50;83.48;100776.84;5036313;28;20224;-67
2024/04/05 07:34:54;;;;;;;2.87;0.87;;;;;;;14.54;82.58;100786.00;5036471;28;20541;-67
2024/04/05 07:37:20;;;;;;;2.37;0.57;;;;;;;14.61;82.94;100786.31;5036090;28;20291;-67
2024/04/05 07:39:47;;;;;;;2.83;0.50;;;;;;;14.64;82.35;100785.66;5036320;28;21011;-67
2024/04/05 07:42:16;;;;;;;2.10;0.30;;;;;;;14.69;82.33;100780.03;5035653;28;20291;-67
2024/04/05 07:44:43;;;;;;;2.10;0.40;;;;;;;14.74;81.22;100790.78;5035812;28;20856;-66
2024/04/05 07:47:08;;;;;;;2.10;0.30;;;;;;;14.74;82.09;100779.88;5062004;22;20899;-68
2024/04/05 07:49:35;;;;;;;2.20;0.50;;;;;;;14.79;81.54;100789.81;5055728;28;20427;-68
2024/04/05 07:52:00;;;;;;;2.40;0.53;;;;;;;14.86;81.51;100788.16;5056000;28;20302;-68
2024/04/05 07:54:27;;;;;;;2.30;0.40;;;;;;;14.89;81.05;100790.25;5055686;28;20517;-68
2024/04/05 07:56:53;;;;;;;2.20;0.40;;;;;;;14.97;80.76;100793.28;5055673;28;20232;-68
2024/04/05 07:59:21;;;;;;;2.10;0.30;;;;;;;15.07;82.15;100798.41;5055592;28;20950;-71
2024/04/05 08:01:46;;;;;;;2.50;0.50;;;;;;;15.16;80.63;100796.44;5055339;28;20239;-70
2024/04/05 08:04:13;;;;;;;2.10;0.40;;;;;;;15.25;81.83;100793.69;5055529;28;20501;-69
2024/04/05 08:06:39;;;;;;;2.10;0.40;;;;;;;15.34;78.90;100797.97;5055531;28;20223;-69
2024/04/05 08:09:07;;;;;;;2.10;0.40;;;;;;;15.46;79.05;100799.22;5055196;28;20533;-69
2024/04/05 08:11:32;;;;;;;2.40;0.50;;;;;;;15.54;77.58;100807.38;5055410;28;20204;-69
2024/04/05 08:13:59;;;;;;;2.20;0.47;;;;;;;15.54;77.80;100807.38;5055319;28;20537;-69
2024/04/05 08:16:26;;;;;;;2.30;0.50;;;;;;;15.57;77.74;100805.88;5055263;28;20213;-69
2024/04/05 08:18:53;;;;;;;2.20;0.40;;;;;;;15.63;77.32;100807.31;5054937;28;20444;-69
2024/04/05 08:21:20;;;;;;;2.20;0.40;;;;;;;15.66;77.59;100809.41;5055492;28;20446;-69
2024/04/05 08:23:47;;;;;;;2.30;0.40;;;;;;;15.71;77.42;100809.22;5054577;28;20467;-69
2024/04/05 08:26:13;;;;;;;2.50;0.60;;;;;;;15.70;78.71;100809.56;5054482;28;20470;-69
2024/04/05 08:28:39;;;;;;;2.10;0.30;;;;;;;15.72;79.07;100821.75;5054652;28;20525;-69
2024/04/05 08:31:05;;;;;;;2.40;0.50;;;;;;;15.75;79.37;100826.53;5055200;28;20199;-69
2024/04/05 08:33:33;;;;;;;2.10;0.40;;;;;;;15.79;78.44;100834.88;5055365;28;20821;-68
2024/04/05 08:35:59;;;;;;;2.20;0.47;;;;;;;15.78;79.78;100828.63;5055218;28;20204;-69
2024/04/05 08:38:25;;;;;;;2.10;0.30;;;;;;;15.75;78.42;100840.19;5054769;28;20501;-69
2024/04/05 08:40:51;;;;;;;2.17;0.40;;;;;;;15.85;78.91;100839.03;5055063;28;20207;-69
2024/04/05 08:43:18;;;;;;;2.10;0.30;;;;;;;15.87;78.23;100843.03;5054636;28;21012;-69
2024/04/05 08:45:44;;;;;;;2.97;0.77;;;;;;;15.91;78.33;100837.72;5054953;28;20290;-69
2024/04/05 08:48:11;;;;;;;2.20;0.50;;;;;;;16.02;77.87;100843.56;5054849;28;20885;-69
2024/04/05 08:50:38;;;;;;;2.20;0.53;;;;;;;16.15;77.99;100842.53;5054935;28;20821;-72
2024/04/05 08:53:08;;;;;;;3.13;0.60;;;;;;;16.23;78.67;100840.88;5054125;28;20842;-69
2024/04/05 08:55:35;;;;;;;2.43;0.67;;;;;;;16.38;76.33;100848.50;5054843;28;20434;-69
2024/04/05 08:58:02;;;;;;;2.10;0.30;;;;;;;16.39;75.05;100853.63;5054106;28;20444;-70
2024/04/05 09:00:28;;;;;;;2.20;0.40;;;;;;;16.26;75.85;100849.22;5054467;28;20504;-69
2024/04/05 09:02:56;;;;;;;2.10;0.40;;;;;;;16.20;77.14;100849.72;5054251;28;20833;-69
2024/04/05 09:05:23;;;;;;;2.20;0.50;;;;;;;16.25;77.14;100831.22;5054791;28;20250;-69
2024/04/05 09:08:02;;;;;;;2.10;0.40;;;;;;;16.37;78.11;100834.00;5054602;28;20482;-69
2024/04/05 09:10:28;;;;;;;2.83;0.40;;;;;;;16.54;76.52;100843.19;5055097;28;20426;-69
2024/04/05 09:12:55;;;;;;;3.10;0.90;;;;;;;16.69;76.00;100842.59;5053807;28;20547;-70
2024/04/05 09:15:23;;;;;;;2.20;0.40;;;;;;;16.77;74.95;100847.19;5054225;28;20664;-69
2024/04/05 09:17:49;;;;;;;2.33;0.47;;;;;;;16.82;74.90;100840.72;5054450;28;20453;-69
2024/04/05 09:20:23;;;;;;;2.30;0.50;;;;;;;16.77;74.38;100836.25;5054402;28;20437;-69
2024/04/05 09:22:59;;;;;;;2.40;0.50;;;;;;;16.67;74.52;100836.66;5054089;28;20461;-69
2024/04/05 09:25:25;;;;;;;2.83;0.60;;;;;;;16.68;76.23;100835.50;5053658;28;20879;-69
2024/04/05 09:27:53;;;;;;;2.17;0.40;;;;;;;16.69;76.46;100839.03;5054144;28;20566;-69
2024/04/05 09:30:21;;;;;;;2.20;0.40;;;;;;;16.71;76.49;100837.56;5054231;28;20450;-69
2024/04/05 09:32:48;;;;;;;2.20;0.50;;;;;;;16.70;76.09;100825.03;5053796;28;20465;-69
2024/04/05 09:35:18;;;;;;;2.30;0.70;;;;;;;16.73;77.64;100826.31;5053616;28;20586;-69
2024/04/05 09:37:46;;;;;;;2.20;0.50;;;;;;;16.79;78.12;100823.06;5054119;28;20468;-69
2024/04/05 09:40:16;;;;;;;2.40;0.60;;;;;;;16.85;77.64;100827.16;5053741;28;20521;-69
2024/04/05 09:42:43;;;;;;;2.10;0.30;;;;;;;16.92;77.42;100837.56;5053606;28;20477;-69
2024/04/05 09:45:09;;;;;;;2.10;0.30;;;;;;;16.97;78.20;100839.28;5053795;28;20499;-70
2024/04/05 09:47:38;;;;;;;2.93;0.70;;;;;;;16.96;78.45;100837.72;5053149;28;20863;-69
2024/04/05 09:50:08;;;;;;;2.10;0.30;;;;;;;16.95;79.13;100839.63;5053508;28;20442;-69
2024/04/05 09:52:40;;;;;;;9.20;0.97;;;;;;;16.97;78.35;100840.09;5053718;28;20473;-69
2024/04/05 09:55:08;;;;;;;2.30;0.50;;;;;;;16.98;78.79;100836.22;5054066;28;20478;-69
2024/04/05 09:57:37;;;;;;;2.10;0.40;;;;;;;17.04;79.76;100828.56;5054266;28;20449;-69
2024/04/05 10:00:14;;;;;;;2.10;0.40;;;;;;;17.08;79.84;100833.03;5053737;28;20465;-69
2024/04/05 10:02:42;;;;;;;2.40;0.53;;;;;;;17.07;79.94;100820.50;5053714;28;20505;-69
2024/04/05 10:05:07;;;;;;;2.33;0.40;;;;;;;17.14;79.31;100818.00;5053696;28;21022;-69
2024/04/05 10:07:34;;;;;;;2.20;0.40;;;;;;;17.28;79.35;100825.91;5053320;28;20549;-69
2024/04/05 10:10:08;;;;;;;2.20;0.50;;;;;;;17.44;79.44;100833.44;5053652;28;20207;-69
2024/04/05 10:12:34;;;;;;;2.20;0.50;;;;;;;17.49;77.68;100835.97;5053942;28;20461;-69
2024/04/05 10:15:01;;;;;;;2.20;0.50;;;;;;;17.39;77.63;100829.78;5053572;28;20904;-69
2024/04/05 10:17:29;;;;;;;2.20;0.40;;;;;;;17.40;76.37;100831.41;5053585;28;20878;-70
2024/04/05 10:20:06;;;;;;;2.27;0.50;;;;;;;17.37;78.15;100843.03;5053395;28;20445;-70
2024/04/05 10:22:33;;;;;;;2.27;0.40;;;;;;;17.42;77.95;100833.00;5053111;28;21008;-69
2024/04/05 10:24:58;;;;;;;2.13;0.40;;;;;;;17.31;78.81;100814.28;5053077;28;20438;-70
2024/04/05 10:27:26;;;;;;;2.10;0.40;;;;;;;17.37;78.97;100820.31;5053127;28;20480;-69
2024/04/05 10:29:59;;;;;;;2.50;0.60;;;;;;;17.45;78.04;100822.16;5053186;28;20207;-69
2024/04/05 10:32:27;;;;;;;2.10;0.30;;;;;;;17.59;78.87;100813.59;5053255;28;20887;-70
2024/04/05 10:34:53;;;;;;;3.43;0.90;;;;;;;17.65;76.76;100821.22;5053244;28;20446;-69
2024/04/05 10:37:20;;;;;;;2.70;0.90;;;;;;;17.65;76.52;100809.47;5053415;28;20785;-70
2024/04/05 10:39:45;;;;;;;2.37;0.67;;;;;;;17.80;77.50;100811.56;5052786;28;20861;-69
2024/04/05 10:42:23;;;;;;;2.20;0.50;;;;;;;17.96;74.95;100803.41;5052738;28;20446;-69
2024/04/05 10:44:58;;;;;;;2.30;0.60;;;;;;;18.10;75.89;100803.03;5053058;28;20275;-69
2024/04/05 10:47:30;;;;;;;2.50;0.60;;;;;;;18.27;75.69;100780.03;5052936;28;20513;-70
2024/04/05 10:50:00;;;;;;;2.40;0.50;;;;;;;18.43;72.48;100780.91;5056942;28;20427;-69
2024/04/05 10:52:26;;;;;;;2.17;0.40;;;;;;;18.69;73.14;100774.16;5056735;28;20837;-69
2024/04/05 10:54:52;;;;;;;2.70;0.60;;;;;;;18.85;71.86;100780.47;5056817;28;20438;-69
2024/04/05 10:57:19;;;;;;;2.20;0.43;;;;;;;18.82;70.81;100781.19;5056785;28;20515;-69
2024/04/05 10:59:45;;;;;;;2.40;0.50;;;;;;;18.84;71.30;100776.94;5057054;28;20206;-69
2024/04/05 11:02:12;;;;;;;2.60;0.60;;;;;;;18.93;69.79;100778.72;5056245;28;20810;-69
2024/04/05 11:04:39;;;;;;;2.10;0.40;;;;;;;18.99;70.02;100771.81;5056866;28;20290;-69
2024/04/05 11:07:06;;;;;;;2.27;0.53;;;;;;;19.21;70.23;100773.94;5056802;28;20569;-69
2024/04/05 11:09:32;;;;;;;4.27;1.20;;;;;;;19.35;68.54;100782.56;5056262;28;20445;-69
2024/04/05 11:11:59;;;;;;;2.77;0.57;;;;;;;19.44;66.74;100762.34;5056757;28;20438;-69
2024/04/05 11:14:25;;;;;;;2.30;0.60;;;;;;;19.47;65.00;100775.34;5056465;28;20445;-69
2024/04/05 11:16:59;;;;;;;2.30;0.50;;;;;;;19.46;68.10;100762.78;5056612;28;20442;-69
2024/04/05 11:19:25;;;;;;;2.20;0.40;;;;;;;19.83;67.84;100764.06;5056125;28;20199;-69
2024/04/05 11:21:54;;;;;;;6.47;0.77;;;;;;;20.12;65.05;100753.66;5056488;28;20508;-69